createdAt,value
2017-03-13T00:00:23.869Z,0
2017-03-13T00:01:33.720Z,0
2017-03-13T00:02:43.965Z,0
2017-03-13T00:03:54.191Z,0
2017-03-13T00:05:03.648Z,0
2017-03-13T00:06:13.108Z,0
2017-03-13T00:07:23.720Z,0
2017-03-13T00:08:33.577Z,0
2017-03-13T00:09:43.441Z,0
2017-03-13T00:10:53.288Z,0
2017-03-13T00:12:02.743Z,0
2017-03-13T00:13:11.835Z,0
2017-03-13T00:14:21.312Z,0
2017-03-13T00:15:30.789Z,0
2017-03-13T00:16:40.661Z,0
2017-03-13T00:17:50.909Z,0
2017-03-13T00:19:00.752Z,0
2017-03-13T00:20:10.215Z,0
2017-03-13T00:21:20.450Z,0
2017-03-13T00:22:30.699Z,0
2017-03-13T00:23:41.307Z,0
2017-03-13T00:24:51.552Z,0
2017-03-13T00:26:01.787Z,0
2017-03-13T00:27:12.006Z,0
2017-03-13T00:28:21.493Z,0
2017-03-13T00:29:31.762Z,0
2017-03-13T00:30:41.232Z,0
2017-03-13T00:31:51.710Z,0
2017-03-13T00:33:02.323Z,0
2017-03-13T00:34:11.810Z,0
2017-03-13T00:35:21.666Z,0
2017-03-13T00:36:30.766Z,0
2017-03-13T00:37:40.235Z,0
2017-03-13T00:38:50.080Z,0
2017-03-13T00:39:59.572Z,0
2017-03-13T00:41:09.029Z,0
2017-03-13T00:42:19.264Z,0
2017-03-13T00:43:29.506Z,0
2017-03-13T00:44:39.728Z,0
2017-03-13T00:45:49.205Z,0
2017-03-13T00:46:58.645Z,0
2017-03-13T00:48:08.903Z,0
2017-03-13T00:49:19.376Z,0
2017-03-13T00:50:29.602Z,0
2017-03-13T00:51:39.076Z,0
2017-03-13T00:52:49.715Z,0
2017-03-13T00:53:59.581Z,0
2017-03-13T00:55:09.040Z,0
2017-03-13T00:56:18.493Z,0
2017-03-13T00:57:28.724Z,0
2017-03-13T00:58:39.351Z,0
2017-03-13T00:59:48.819Z,0
2017-03-13T01:00:58.671Z,0
2017-03-13T01:02:08.139Z,0
2017-03-13T01:03:18.398Z,0
2017-03-13T01:04:29.011Z,0
2017-03-13T01:05:39.232Z,0
2017-03-13T01:06:49.745Z,0
2017-03-13T01:07:59.595Z,0
2017-03-13T01:09:09.803Z,0
2017-03-13T01:10:20.022Z,0
2017-03-13T01:11:29.885Z,0
2017-03-13T01:12:39.720Z,0
2017-03-13T01:13:50.333Z,0
2017-03-13T01:15:00.559Z,0
2017-03-13T01:16:10.026Z,0
2017-03-13T01:17:20.638Z,0
2017-03-13T01:18:31.114Z,0
2017-03-13T01:19:41.004Z,0
2017-03-13T01:20:50.847Z,0
2017-03-13T01:22:01.457Z,0
2017-03-13T01:23:11.324Z,0
2017-03-13T01:24:20.415Z,0
2017-03-13T01:25:29.887Z,0
2017-03-13T01:26:39.732Z,0
2017-03-13T01:27:50.361Z,0
2017-03-13T01:28:59.846Z,0
2017-03-13T01:30:10.064Z,0
2017-03-13T01:31:19.525Z,0
2017-03-13T01:32:30.132Z,0
2017-03-13T01:33:40.372Z,0
2017-03-13T01:34:50.599Z,0
2017-03-13T01:36:00.701Z,0
2017-03-13T01:37:10.170Z,0
2017-03-13T01:38:20.396Z,0
2017-03-13T01:39:30.634Z,0
2017-03-13T01:40:40.900Z,0
2017-03-13T01:41:50.731Z,0
2017-03-13T01:43:00.579Z,0
2017-03-13T01:44:10.829Z,0
2017-03-13T01:45:21.064Z,0
2017-03-13T01:46:30.521Z,0
2017-03-13T01:47:40.391Z,0
2017-03-13T01:48:50.247Z,0
2017-03-13T01:49:59.715Z,0
2017-03-13T01:51:09.171Z,0
2017-03-13T01:52:19.023Z,0
2017-03-13T01:53:28.871Z,0
2017-03-13T01:54:39.105Z,0
2017-03-13T01:55:49.726Z,0
2017-03-13T01:56:59.199Z,0
2017-03-13T01:58:09.432Z,0
2017-03-13T01:59:19.935Z,0
2017-03-13T02:00:29.789Z,0
2017-03-13T02:01:39.251Z,0
2017-03-13T02:02:49.518Z,0
2017-03-13T02:03:59.752Z,0
2017-03-13T02:05:09.610Z,0
2017-03-13T02:06:19.436Z,0
2017-03-13T02:07:29.663Z,0
2017-03-13T02:08:39.516Z,0
2017-03-13T02:09:49.377Z,0
2017-03-13T02:10:58.448Z,0
2017-03-13T02:12:07.512Z,0
2017-03-13T02:13:17.763Z,0
2017-03-13T02:14:27.997Z,0
2017-03-13T02:15:38.238Z,0
2017-03-13T02:16:48.335Z,0
2017-03-13T02:17:57.412Z,0
2017-03-13T02:19:06.483Z,0
2017-03-13T02:20:16.714Z,0
2017-03-13T02:21:25.824Z,0
2017-03-13T02:22:36.073Z,0
2017-03-13T02:23:46.290Z,0
2017-03-13T02:24:56.524Z,0
2017-03-13T02:26:05.984Z,0
2017-03-13T02:27:16.201Z,0
2017-03-13T02:28:26.340Z,0
2017-03-13T02:29:36.204Z,0
2017-03-13T02:30:45.669Z,0
2017-03-13T02:31:55.123Z,0
2017-03-13T02:33:04.966Z,0
2017-03-13T02:34:14.466Z,0
2017-03-13T02:35:25.081Z,0
2017-03-13T02:36:34.932Z,0
2017-03-13T02:37:44.805Z,0
2017-03-13T02:38:54.667Z,0
2017-03-13T02:40:04.762Z,0
2017-03-13T02:41:14.628Z,0
2017-03-13T02:42:24.868Z,0
2017-03-13T02:43:34.709Z,0
2017-03-13T02:44:45.316Z,0
2017-03-13T02:45:55.180Z,0
2017-03-13T02:47:05.045Z,0
2017-03-13T02:48:14.509Z,0
2017-03-13T02:49:24.357Z,0
2017-03-13T02:50:34.194Z,0
2017-03-13T02:51:44.430Z,0
2017-03-13T02:52:55.050Z,0
2017-03-13T02:54:04.883Z,0
2017-03-13T02:55:14.745Z,0
2017-03-13T02:56:24.209Z,0
2017-03-13T02:57:34.722Z,0
2017-03-13T02:58:44.580Z,0
2017-03-13T02:59:54.078Z,0
2017-03-13T03:01:03.534Z,0
2017-03-13T03:02:13.406Z,0
2017-03-13T03:03:23.523Z,0
2017-03-13T03:04:32.608Z,0
2017-03-13T03:05:42.446Z,0
2017-03-13T03:06:52.663Z,0
2017-03-13T03:08:02.941Z,0
2017-03-13T03:09:13.167Z,0
2017-03-13T03:10:23.764Z,0
2017-03-13T03:11:33.987Z,0
2017-03-13T03:12:44.602Z,0
2017-03-13T03:13:54.448Z,0
2017-03-13T03:15:04.315Z,0
2017-03-13T03:16:13.777Z,0
2017-03-13T03:17:23.638Z,0
2017-03-13T03:18:33.481Z,0
2017-03-13T03:19:42.931Z,0
2017-03-13T03:20:52.990Z,0
2017-03-13T03:22:03.591Z,0
2017-03-13T03:23:12.673Z,0
2017-03-13T03:24:22.511Z,0
2017-03-13T03:25:32.730Z,0
2017-03-13T03:26:42.944Z,0
2017-03-13T03:27:52.052Z,0
2017-03-13T03:29:01.936Z,0
2017-03-13T03:30:11.022Z,0
2017-03-13T03:31:20.859Z,0
2017-03-13T03:32:31.116Z,0
2017-03-13T03:33:40.978Z,0
2017-03-13T03:34:51.241Z,0
2017-03-13T03:36:01.098Z,0
2017-03-13T03:37:11.706Z,0
2017-03-13T03:38:22.209Z,0
2017-03-13T03:39:32.064Z,0
2017-03-13T03:40:41.527Z,0
2017-03-13T03:41:51.367Z,0
2017-03-13T03:43:01.589Z,0
2017-03-13T03:44:11.427Z,0
2017-03-13T03:45:21.648Z,0
2017-03-13T03:46:31.506Z,0
2017-03-13T03:47:41.355Z,0
2017-03-13T03:48:50.835Z,0
2017-03-13T03:50:00.873Z,0
2017-03-13T03:51:10.350Z,0
2017-03-13T03:52:20.585Z,0
2017-03-13T03:53:30.429Z,0
2017-03-13T03:54:40.667Z,0
2017-03-13T03:55:50.520Z,0
2017-03-13T03:57:00.357Z,0
2017-03-13T03:58:09.834Z,0
2017-03-13T03:59:20.444Z,0
2017-03-13T04:00:30.279Z,0
2017-03-13T04:01:38.997Z,0
2017-03-13T04:02:49.633Z,0
2017-03-13T04:03:59.499Z,0
2017-03-13T04:05:09.341Z,0
2017-03-13T04:06:19.190Z,0
2017-03-13T04:07:29.274Z,0
2017-03-13T04:08:39.114Z,0
2017-03-13T04:09:48.577Z,0
2017-03-13T04:10:57.285Z,0
2017-03-13T04:12:07.909Z,0
2017-03-13T04:13:17.977Z,0
2017-03-13T04:14:27.822Z,0
2017-03-13T04:15:37.662Z,0
2017-03-13T04:16:46.756Z,0
2017-03-13T04:17:56.622Z,0
2017-03-13T04:19:06.069Z,0
2017-03-13T04:20:16.664Z,0
2017-03-13T04:21:26.497Z,0
2017-03-13T04:22:36.348Z,0
2017-03-13T04:23:46.210Z,0
2017-03-13T04:24:56.302Z,0
2017-03-13T04:26:06.541Z,0
2017-03-13T04:27:16.780Z,0
2017-03-13T04:28:27.027Z,0
2017-03-13T04:29:37.266Z,0
2017-03-13T04:30:47.115Z,0
2017-03-13T04:31:56.583Z,0
2017-03-13T04:33:06.429Z,0
2017-03-13T04:34:16.286Z,0
2017-03-13T04:35:26.159Z,0
2017-03-13T04:36:35.223Z,0
2017-03-13T04:37:44.707Z,0
2017-03-13T04:38:54.919Z,0
2017-03-13T04:40:04.376Z,0
2017-03-13T04:41:13.455Z,0
2017-03-13T04:42:23.127Z,0
2017-03-13T04:43:33.354Z,0
2017-03-13T04:44:43.974Z,0
2017-03-13T04:45:54.230Z,0
2017-03-13T04:47:04.483Z,0
2017-03-13T04:48:13.941Z,0
2017-03-13T04:49:23.792Z,0
2017-03-13T04:50:34.409Z,0
2017-03-13T04:51:44.247Z,0
2017-03-13T04:52:53.721Z,0
2017-03-13T04:54:03.940Z,0
2017-03-13T04:55:14.169Z,0
2017-03-13T04:56:24.021Z,0
2017-03-13T04:57:34.272Z,0
2017-03-13T04:58:43.748Z,0
2017-03-13T04:59:53.585Z,0
2017-03-13T05:01:03.811Z,0
2017-03-13T05:02:12.893Z,0
2017-03-13T05:03:22.755Z,0
2017-03-13T05:04:32.983Z,0
2017-03-13T05:05:42.829Z,0
2017-03-13T05:06:53.053Z,0
2017-03-13T05:08:03.292Z,0
2017-03-13T05:09:13.132Z,0
2017-03-13T05:10:23.388Z,0
2017-03-13T05:11:33.646Z,0
2017-03-13T05:12:43.881Z,0
2017-03-13T05:13:53.351Z,0
2017-03-13T05:15:03.215Z,0
2017-03-13T05:16:12.674Z,0
2017-03-13T05:17:22.723Z,0
2017-03-13T05:18:32.588Z,0
2017-03-13T05:19:42.801Z,0
2017-03-13T05:20:52.650Z,0
2017-03-13T05:22:02.502Z,0
2017-03-13T05:23:12.746Z,0
2017-03-13T05:24:22.980Z,0
2017-03-13T05:25:32.817Z,0
2017-03-13T05:26:43.472Z,0
2017-03-13T05:27:52.935Z,0
2017-03-13T05:29:02.981Z,0
2017-03-13T05:30:12.467Z,0
2017-03-13T05:31:22.295Z,0
2017-03-13T05:32:32.545Z,0
2017-03-13T05:33:42.770Z,0
2017-03-13T05:34:53.201Z,0
2017-03-13T05:36:03.430Z,0
2017-03-13T05:37:13.685Z,0
2017-03-13T05:38:23.536Z,0
2017-03-13T05:39:33.753Z,0
2017-03-13T05:40:44.367Z,0
2017-03-13T05:41:53.817Z,0
2017-03-13T05:43:04.044Z,0
2017-03-13T05:44:13.890Z,5
2017-03-13T05:45:23.764Z,5
2017-03-13T05:46:34.237Z,5
2017-03-13T05:47:44.462Z,5
2017-03-13T05:48:55.067Z,5
2017-03-13T05:50:04.535Z,10
2017-03-13T05:51:13.994Z,10
2017-03-13T05:52:23.823Z,10
2017-03-13T05:53:33.666Z,10
2017-03-13T05:54:43.495Z,15
2017-03-13T05:55:52.967Z,15
2017-03-13T05:57:02.414Z,15
2017-03-13T05:58:12.259Z,20
2017-03-13T05:59:21.717Z,20
2017-03-13T06:00:31.567Z,20
2017-03-13T06:01:42.177Z,25
2017-03-13T06:02:52.042Z,25
2017-03-13T06:04:02.269Z,30
2017-03-13T06:05:11.732Z,30
2017-03-13T06:06:21.601Z,35
2017-03-13T06:07:31.068Z,35
2017-03-13T06:08:41.322Z,40
2017-03-13T06:09:50.398Z,45
2017-03-13T06:10:59.859Z,45
2017-03-13T06:12:09.712Z,50
2017-03-13T06:13:19.567Z,50
2017-03-13T06:14:29.790Z,55
2017-03-13T06:15:39.875Z,60
2017-03-13T06:16:49.713Z,65
2017-03-13T06:17:59.550Z,65
2017-03-13T06:19:08.637Z,70
2017-03-13T06:20:18.860Z,75
2017-03-13T06:21:28.344Z,80
2017-03-13T06:22:38.561Z,80
2017-03-13T06:23:48.806Z,85
2017-03-13T06:24:58.265Z,85
2017-03-13T06:26:08.105Z,85
2017-03-13T06:27:18.991Z,90
2017-03-13T06:28:29.623Z,95
2017-03-13T06:29:39.477Z,100
2017-03-13T06:30:48.955Z,100
2017-03-13T06:31:59.187Z,105
2017-03-13T06:33:08.640Z,105
2017-03-13T06:34:18.495Z,110
2017-03-13T06:35:28.722Z,115
2017-03-13T06:36:38.622Z,115
2017-03-13T06:37:48.458Z,120
2017-03-13T06:38:57.916Z,125
2017-03-13T06:40:08.179Z,125
2017-03-13T06:41:18.423Z,130
2017-03-13T06:42:28.272Z,135
2017-03-13T06:43:37.345Z,140
2017-03-13T06:44:46.410Z,140
2017-03-13T06:45:56.633Z,145
2017-03-13T06:47:06.864Z,150
2017-03-13T06:48:16.349Z,155
2017-03-13T06:49:25.843Z,160
2017-03-13T06:50:35.938Z,160
2017-03-13T06:51:46.206Z,165
2017-03-13T06:52:56.453Z,170
2017-03-13T06:54:06.682Z,175
2017-03-13T06:55:16.544Z,180
2017-03-13T06:56:26.393Z,180
2017-03-13T06:57:36.609Z,185
2017-03-13T06:58:46.849Z,185
2017-03-13T06:59:56.329Z,190
2017-03-13T07:01:05.808Z,195
2017-03-13T07:02:15.920Z,195
2017-03-13T07:03:26.178Z,200
2017-03-13T07:04:36.427Z,200
2017-03-13T07:05:46.682Z,200
2017-03-13T07:06:56.930Z,205
2017-03-13T07:08:06.788Z,210
2017-03-13T07:09:16.655Z,210
2017-03-13T07:10:25.339Z,215
2017-03-13T07:11:35.560Z,215
2017-03-13T07:12:45.416Z,220
2017-03-13T07:13:55.893Z,225
2017-03-13T07:15:06.149Z,225
2017-03-13T07:16:16.031Z,230
2017-03-13T07:17:25.496Z,230
2017-03-13T07:18:35.715Z,235
2017-03-13T07:19:46.736Z,235
2017-03-13T07:20:56.449Z,235
2017-03-13T07:22:06.311Z,235
2017-03-13T07:23:16.539Z,235
2017-03-13T07:24:26.774Z,235
2017-03-13T07:25:36.519Z,240
2017-03-13T07:26:46.513Z,240
2017-03-13T07:27:56.363Z,240
2017-03-13T07:29:07.089Z,240
2017-03-13T07:30:16.560Z,240
2017-03-13T07:31:26.107Z,245
2017-03-13T07:32:35.951Z,245
2017-03-13T07:33:45.407Z,245
2017-03-13T07:34:54.866Z,245
2017-03-13T07:36:04.748Z,250
2017-03-13T07:37:14.743Z,250
2017-03-13T07:38:24.604Z,255
2017-03-13T07:39:33.333Z,255
2017-03-13T07:40:43.554Z,255
2017-03-13T07:41:53.820Z,260
2017-03-13T07:43:02.915Z,260
2017-03-13T07:44:13.523Z,265
2017-03-13T07:45:23.378Z,265
2017-03-13T07:46:33.230Z,270
2017-03-13T07:47:42.731Z,270
2017-03-13T07:48:52.824Z,270
2017-03-13T07:50:02.508Z,270
2017-03-13T07:51:12.403Z,270
2017-03-13T07:52:21.487Z,270
2017-03-13T07:53:30.982Z,275
2017-03-13T07:54:41.206Z,275
2017-03-13T07:55:51.049Z,270
2017-03-13T07:57:00.571Z,265
2017-03-13T07:58:11.134Z,260
2017-03-13T07:59:20.745Z,255
2017-03-13T08:00:30.466Z,250
2017-03-13T08:01:40.334Z,250
2017-03-13T08:02:49.801Z,250
2017-03-13T08:03:58.880Z,245
2017-03-13T08:05:08.358Z,245
2017-03-13T08:06:18.211Z,240
2017-03-13T08:07:28.056Z,235
2017-03-13T08:08:38.282Z,230
2017-03-13T08:09:48.537Z,225
2017-03-13T08:10:58.387Z,225
2017-03-13T08:12:08.619Z,225
2017-03-13T08:13:18.136Z,230
2017-03-13T08:14:28.380Z,235
2017-03-13T08:15:37.860Z,240
2017-03-13T08:16:47.343Z,240
2017-03-13T08:17:57.064Z,240
2017-03-13T08:19:06.524Z,245
2017-03-13T08:20:16.357Z,250
2017-03-13T08:21:25.824Z,250
2017-03-13T08:22:35.307Z,255
2017-03-13T08:23:45.531Z,275
2017-03-13T08:24:55.370Z,300
2017-03-13T08:26:05.208Z,325
2017-03-13T08:27:15.055Z,325
2017-03-13T08:28:24.523Z,335
2017-03-13T08:29:34.231Z,345
2017-03-13T08:30:44.100Z,345
2017-03-13T08:31:53.968Z,350
2017-03-13T08:33:04.208Z,355
2017-03-13T08:34:12.902Z,360
2017-03-13T08:35:23.148Z,375
2017-03-13T08:36:33.393Z,370
2017-03-13T08:37:42.872Z,370
2017-03-13T08:38:52.773Z,375
2017-03-13T08:40:03.575Z,375
2017-03-13T08:41:12.833Z,385
2017-03-13T08:42:23.909Z,395
2017-03-13T08:43:34.778Z,400
2017-03-13T08:44:44.831Z,410
2017-03-13T08:45:54.730Z,415
2017-03-13T08:47:04.202Z,420
2017-03-13T08:48:14.176Z,425
2017-03-13T08:49:24.090Z,500
2017-03-13T08:50:34.705Z,825
2017-03-13T08:51:44.960Z,1110
2017-03-13T08:52:54.451Z,1210
2017-03-13T08:54:04.763Z,1220
2017-03-13T08:55:14.691Z,1220
2017-03-13T08:56:24.977Z,1235
2017-03-13T08:57:34.498Z,1285
2017-03-13T08:58:44.637Z,1330
2017-03-13T08:59:54.873Z,1370
2017-03-13T09:01:04.374Z,1385
2017-03-13T09:02:13.823Z,1390
2017-03-13T09:03:23.675Z,1390
2017-03-13T09:04:33.541Z,1440
2017-03-13T09:05:43.822Z,1410
2017-03-13T09:06:54.107Z,1400
2017-03-13T09:08:03.949Z,1480
2017-03-13T09:09:14.178Z,1365
2017-03-13T09:10:23.105Z,1405
2017-03-13T09:11:32.239Z,1335
2017-03-13T09:12:42.232Z,1275
2017-03-13T09:13:54.733Z,1310
2017-03-13T09:15:04.394Z,1205
2017-03-13T09:16:14.459Z,1290
2017-03-13T09:17:24.687Z,1230
2017-03-13T09:18:34.764Z,1130
2017-03-13T09:19:45.071Z,1160
2017-03-13T09:20:54.736Z,1110
2017-03-13T09:22:04.174Z,1060
2017-03-13T09:23:14.111Z,1125
2017-03-13T09:24:24.182Z,1160
2017-03-13T09:25:33.880Z,1150
2017-03-13T09:26:44.164Z,1130
2017-03-13T09:27:54.756Z,1045
2017-03-13T09:29:05.194Z,1010
2017-03-13T09:30:15.220Z,1085
2017-03-13T09:31:25.699Z,1160
2017-03-13T09:32:36.180Z,1110
2017-03-13T09:33:46.512Z,1085
2017-03-13T09:34:56.090Z,1080
2017-03-13T09:36:06.006Z,1105
2017-03-13T09:37:14.891Z,1250
2017-03-13T09:38:25.246Z,1285
2017-03-13T09:39:35.283Z,1295
2017-03-13T09:40:45.565Z,1325
2017-03-13T09:41:56.785Z,1340
2017-03-13T09:43:06.854Z,1385
2017-03-13T09:44:17.004Z,1305
2017-03-13T09:45:27.759Z,1275
2017-03-13T09:46:38.442Z,1300
2017-03-13T09:47:47.782Z,1325
2017-03-13T09:48:57.486Z,1380
2017-03-13T09:50:08.108Z,1350
2017-03-13T09:51:17.340Z,1405
2017-03-13T09:52:37.286Z,1460
2017-03-13T09:53:47.149Z,1260
2017-03-13T09:55:01.583Z,1270
2017-03-13T09:56:11.797Z,1290
2017-03-13T09:57:21.785Z,1345
2017-03-13T09:58:31.883Z,1385
2017-03-13T09:59:42.089Z,1435
2017-03-13T10:00:52.275Z,1510
2017-03-13T10:02:03.028Z,1460
2017-03-13T10:03:14.089Z,1505
2017-03-13T10:04:24.854Z,1480
2017-03-13T10:05:34.946Z,1470
2017-03-13T10:06:45.492Z,1420
2017-03-13T10:07:55.753Z,1420
2017-03-13T10:09:06.273Z,1490
2017-03-13T10:10:16.547Z,1475
2017-03-13T10:11:26.408Z,1490
2017-03-13T10:12:36.258Z,1550
2017-03-13T10:13:46.165Z,1525
2017-03-13T10:14:56.796Z,1550
2017-03-13T10:16:06.678Z,1460
2017-03-13T10:17:16.935Z,1485
2017-03-13T10:18:27.188Z,1665
2017-03-13T10:19:36.292Z,1775
2017-03-13T10:20:46.407Z,1515
2017-03-13T10:21:57.026Z,1445
2017-03-13T10:23:07.258Z,1385
2017-03-13T10:24:17.145Z,1310
2017-03-13T10:25:27.018Z,1310
2017-03-13T10:26:37.184Z,1320
2017-03-13T10:27:47.833Z,1580
2017-03-13T10:28:58.092Z,1515
2017-03-13T10:30:07.583Z,1555
2017-03-13T10:31:17.070Z,1510
2017-03-13T10:32:26.543Z,1320
2017-03-13T10:33:36.405Z,1410
2017-03-13T10:34:46.278Z,1435
2017-03-13T10:35:55.394Z,1395
2017-03-13T10:37:04.873Z,1450
2017-03-13T10:38:14.393Z,1375
2017-03-13T10:39:24.648Z,1420
2017-03-13T10:40:34.163Z,1395
2017-03-13T10:41:43.670Z,1270
2017-03-13T10:42:54.294Z,1445
2017-03-13T10:44:04.740Z,1425
2017-03-13T10:45:15.012Z,1530
2017-03-13T10:46:24.110Z,1455
2017-03-13T10:47:33.972Z,1695
2017-03-13T10:48:43.853Z,1585
2017-03-13T10:49:54.131Z,1450
2017-03-13T10:51:03.606Z,1595
2017-03-13T10:52:13.492Z,1595
2017-03-13T10:53:23.733Z,1485
2017-03-13T10:54:33.212Z,1440
2017-03-13T10:55:42.946Z,1360
2017-03-13T10:56:52.792Z,1220
2017-03-13T10:58:02.291Z,1330
2017-03-13T10:59:12.170Z,1225
2017-03-13T11:00:22.427Z,1170
2017-03-13T11:01:33.061Z,1190
2017-03-13T11:02:42.535Z,1195
2017-03-13T11:03:52.043Z,1240
2017-03-13T11:05:08.968Z,1095
2017-03-13T11:06:30.132Z,1240
2017-03-13T11:07:48.358Z,1305
2017-03-13T11:09:07.880Z,1510
2017-03-13T11:10:29.497Z,1400
2017-03-13T11:11:44.110Z,1505
2017-03-13T11:12:55.539Z,1580
2017-03-13T11:14:05.792Z,1350
2017-03-13T11:15:16.066Z,1330
2017-03-13T11:16:26.318Z,1315
2017-03-13T11:17:36.602Z,1180
2017-03-13T11:18:46.453Z,1195
2017-03-13T11:19:56.562Z,1515
2017-03-13T11:21:06.439Z,1565
2017-03-13T11:22:16.670Z,1325
2017-03-13T11:23:26.924Z,1280
2017-03-13T11:24:37.242Z,1250
2017-03-13T11:25:47.118Z,1325
2017-03-13T11:26:57.744Z,1520
2017-03-13T11:28:07.619Z,1585
2017-03-13T11:29:17.473Z,1540
2017-03-13T11:30:27.325Z,1670
2017-03-13T11:31:37.206Z,1700
2017-03-13T11:32:47.069Z,1520
2017-03-13T11:33:57.396Z,1475
2017-03-13T11:35:07.247Z,1560
2017-03-13T11:36:16.721Z,1310
2017-03-13T11:37:26.221Z,1390
2017-03-13T11:38:36.482Z,1250
2017-03-13T11:39:46.788Z,1300
2017-03-13T11:40:57.433Z,1250
2017-03-13T11:42:07.673Z,1185
2017-03-13T11:43:17.730Z,1020
2017-03-13T11:44:27.959Z,965
2017-03-13T11:45:38.205Z,820
2017-03-13T11:46:48.077Z,855
2017-03-13T11:47:58.696Z,815
2017-03-13T11:49:08.933Z,780
2017-03-13T11:50:18.501Z,760
2017-03-13T11:51:28.361Z,745
2017-03-13T11:52:38.251Z,765
2017-03-13T11:53:48.170Z,755
2017-03-13T11:54:57.865Z,755
2017-03-13T11:56:06.960Z,760
2017-03-13T11:57:16.834Z,770
2017-03-13T11:58:26.681Z,780
2017-03-13T11:59:36.583Z,785
2017-03-13T12:00:46.062Z,785
2017-03-13T12:01:56.317Z,780
2017-03-13T12:03:05.429Z,785
2017-03-13T12:04:15.661Z,780
2017-03-13T12:05:25.513Z,760
2017-03-13T12:06:36.004Z,745
2017-03-13T12:07:46.256Z,725
2017-03-13T12:08:56.522Z,705
2017-03-13T12:10:06.768Z,685
2017-03-13T12:11:16.632Z,665
2017-03-13T12:12:25.746Z,655
2017-03-13T12:13:35.237Z,645
2017-03-13T12:14:45.479Z,640
2017-03-13T12:15:54.997Z,630
2017-03-13T12:17:05.611Z,635
2017-03-13T12:18:15.336Z,640
2017-03-13T12:19:25.571Z,660
2017-03-13T12:20:35.058Z,670
2017-03-13T12:21:44.914Z,690
2017-03-13T12:22:54.765Z,695
2017-03-13T12:24:03.852Z,705
2017-03-13T12:25:13.318Z,725
2017-03-13T12:26:23.580Z,725
2017-03-13T12:27:33.056Z,710
2017-03-13T12:28:42.913Z,700
2017-03-13T12:29:53.026Z,700
2017-03-13T12:31:02.888Z,685
2017-03-13T12:32:11.997Z,685
2017-03-13T12:33:21.480Z,685
2017-03-13T12:34:30.962Z,690
2017-03-13T12:35:40.848Z,685
2017-03-13T12:36:50.697Z,675
2017-03-13T12:37:59.801Z,680
2017-03-13T12:39:10.038Z,675
2017-03-13T12:40:19.148Z,670
2017-03-13T12:41:28.883Z,660
2017-03-13T12:42:38.740Z,650
2017-03-13T12:43:48.635Z,665
2017-03-13T12:44:58.883Z,675
2017-03-13T12:46:08.352Z,685
2017-03-13T12:47:18.219Z,670
2017-03-13T12:48:28.094Z,650
2017-03-13T12:49:38.327Z,640
2017-03-13T12:50:48.216Z,645
2017-03-13T12:54:14.497Z,645
2017-03-13T12:55:25.133Z,670
2017-03-13T12:56:34.979Z,685
2017-03-13T12:57:44.443Z,705
2017-03-13T12:58:54.310Z,735
2017-03-13T13:00:03.778Z,735
2017-03-13T13:01:13.982Z,745
2017-03-13T13:02:23.031Z,750
2017-03-13T13:03:32.467Z,750
2017-03-13T13:04:42.159Z,760
2017-03-13T13:05:51.979Z,745
2017-03-13T13:07:01.812Z,720
2017-03-13T13:08:12.401Z,715
2017-03-13T13:09:22.600Z,705
2017-03-13T13:10:32.026Z,680
2017-03-13T13:11:41.454Z,680
2017-03-13T13:12:50.120Z,665
2017-03-13T13:13:58.795Z,665
2017-03-13T13:15:07.459Z,650
2017-03-13T13:16:17.147Z,640
2017-03-13T13:17:26.203Z,635
2017-03-13T13:18:36.414Z,630
2017-03-13T13:19:45.860Z,650
2017-03-13T13:20:55.290Z,685
2017-03-13T13:22:05.495Z,675
2017-03-13T13:23:15.527Z,685
2017-03-13T13:24:25.365Z,695
2017-03-13T13:25:35.184Z,680
2017-03-13T13:26:44.999Z,695
2017-03-13T13:27:55.857Z,690
2017-03-13T13:29:05.400Z,705
2017-03-13T13:30:14.884Z,700
2017-03-13T13:31:23.978Z,700
2017-03-13T13:32:33.797Z,720
2017-03-13T13:33:43.997Z,725
2017-03-13T13:34:54.588Z,715
2017-03-13T13:36:04.792Z,745
2017-03-13T13:37:14.225Z,780
2017-03-13T13:38:24.059Z,750
2017-03-13T13:39:33.756Z,785
2017-03-13T13:40:44.044Z,785
2017-03-13T13:41:54.245Z,800
2017-03-13T13:43:04.066Z,765
2017-03-13T13:44:13.888Z,640
2017-03-13T13:45:24.623Z,535
2017-03-13T13:46:34.833Z,425
2017-03-13T13:47:45.069Z,360
2017-03-13T13:48:55.297Z,365
2017-03-13T13:50:04.731Z,395
2017-03-13T13:51:14.780Z,430
2017-03-13T13:52:25.387Z,465
2017-03-13T13:53:35.209Z,510
2017-03-13T13:54:45.028Z,570
2017-03-13T13:55:55.234Z,620
2017-03-13T13:57:05.812Z,660
2017-03-13T13:58:15.629Z,690
2017-03-13T13:59:25.845Z,700
2017-03-13T14:00:36.067Z,670
2017-03-13T14:01:46.276Z,620
2017-03-13T14:02:55.737Z,565
2017-03-13T14:04:04.785Z,505
2017-03-13T14:05:13.484Z,445
2017-03-13T14:06:22.538Z,405
2017-03-13T14:07:32.357Z,385
2017-03-13T14:08:42.173Z,395
2017-03-13T14:09:51.443Z,420
2017-03-13T14:11:01.653Z,440
2017-03-13T14:12:11.087Z,450
2017-03-13T14:13:26.690Z,470
2017-03-13T14:14:36.858Z,470
2017-03-13T14:15:45.960Z,445
2017-03-13T14:16:55.841Z,430
2017-03-13T14:18:05.659Z,425
2017-03-13T14:19:15.473Z,420
2017-03-13T14:20:24.533Z,420
2017-03-13T14:21:34.358Z,410
2017-03-13T14:22:44.176Z,395
2017-03-13T14:25:03.488Z,385
2017-03-13T14:26:13.301Z,375
2017-03-13T14:27:22.737Z,350
2017-03-13T14:28:32.934Z,330
2017-03-13T14:29:42.405Z,315
2017-03-13T14:30:51.908Z,320
2017-03-13T14:32:01.723Z,320
2017-03-13T14:33:11.154Z,310
2017-03-13T14:34:20.972Z,305
2017-03-13T14:35:30.024Z,310
2017-03-13T14:36:39.455Z,310
2017-03-13T14:37:48.885Z,310
2017-03-13T14:38:59.136Z,295
2017-03-13T14:40:08.557Z,285
2017-03-13T14:41:17.598Z,270
2017-03-13T14:42:26.301Z,255
2017-03-13T14:43:36.322Z,245
2017-03-13T14:44:46.520Z,245
2017-03-13T14:45:56.782Z,250
2017-03-13T14:47:06.225Z,255
2017-03-13T14:48:16.054Z,255
2017-03-13T14:49:25.877Z,260
2017-03-13T14:50:35.730Z,270
2017-03-13T14:51:45.924Z,280
2017-03-13T14:52:55.742Z,305
2017-03-13T14:54:05.578Z,330
2017-03-13T14:55:15.004Z,355
2017-03-13T14:56:24.058Z,365
2017-03-13T14:57:33.875Z,380
2017-03-13T14:58:44.071Z,380
2017-03-13T14:59:54.281Z,375
2017-03-13T15:01:03.328Z,360
2017-03-13T15:02:11.992Z,355
2017-03-13T15:03:22.195Z,340
2017-03-13T15:04:32.414Z,325
2017-03-13T15:05:42.620Z,310
2017-03-13T15:06:51.917Z,290
2017-03-13T15:08:01.343Z,265
2017-03-13T15:09:11.161Z,245
2017-03-13T15:10:20.983Z,230
2017-03-13T15:11:31.195Z,225
2017-03-13T15:12:41.778Z,230
2017-03-13T15:13:52.007Z,245
2017-03-13T15:15:02.244Z,260
2017-03-13T15:16:12.087Z,270
2017-03-13T15:17:22.307Z,260
2017-03-13T15:18:32.758Z,255
2017-03-13T15:19:42.950Z,245
2017-03-13T15:20:52.382Z,245
2017-03-13T15:22:02.964Z,255
2017-03-13T15:23:12.784Z,270
2017-03-13T15:24:21.832Z,285
2017-03-13T15:25:32.034Z,285
2017-03-13T15:26:41.456Z,290
2017-03-13T15:27:51.695Z,290
2017-03-13T15:29:01.511Z,295
2017-03-13T15:30:11.593Z,290
2017-03-13T15:31:21.798Z,290
2017-03-13T15:32:30.841Z,290
2017-03-13T15:33:40.663Z,280
2017-03-13T15:34:51.242Z,265
2017-03-13T15:36:01.441Z,255
2017-03-13T15:37:11.646Z,245
2017-03-13T15:38:21.474Z,235
2017-03-13T15:39:31.675Z,215
2017-03-13T15:40:41.897Z,205
2017-03-13T15:41:51.965Z,190
2017-03-13T15:43:02.162Z,185
2017-03-13T15:44:12.375Z,180
2017-03-13T15:45:22.572Z,175
2017-03-13T15:46:32.383Z,175
2017-03-13T15:47:42.192Z,180
2017-03-13T15:48:51.627Z,175
2017-03-13T15:50:01.827Z,170
2017-03-13T15:51:12.027Z,160
2017-03-13T15:52:21.840Z,145
2017-03-13T15:53:31.912Z,130
2017-03-13T15:54:40.952Z,120
2017-03-13T15:55:50.392Z,110
2017-03-13T15:56:59.435Z,105
2017-03-13T15:58:08.883Z,105
2017-03-13T15:59:18.313Z,105
2017-03-13T16:00:27.746Z,110
2017-03-13T16:01:37.557Z,115
2017-03-13T16:02:46.607Z,120
2017-03-13T16:03:56.807Z,130
2017-03-13T16:05:05.720Z,140
2017-03-13T16:06:15.927Z,150
2017-03-13T16:07:26.135Z,165
2017-03-13T16:08:36.336Z,175
2017-03-13T16:09:46.156Z,195
2017-03-13T16:10:56.354Z,225
2017-03-13T16:12:06.548Z,235
2017-03-13T16:13:15.604Z,240
2017-03-13T16:14:25.815Z,260
2017-03-13T16:15:36.026Z,265
2017-03-13T16:16:45.843Z,270
2017-03-13T16:17:56.052Z,275
2017-03-13T16:19:05.479Z,280
2017-03-13T16:20:14.136Z,280
2017-03-13T16:21:22.796Z,280
2017-03-13T16:22:31.457Z,280
2017-03-13T16:23:40.501Z,265
2017-03-13T16:24:49.163Z,250
2017-03-13T16:25:58.208Z,235